createdAt,value
2022-10-05T00:01:24.746Z,100.00
2022-10-05T00:03:52.915Z,100.00
2022-10-05T00:06:19.292Z,100.00
2022-10-05T00:08:45.889Z,100.00
2022-10-05T00:11:16.379Z,100.00
2022-10-05T00:13:42.933Z,100.00
2022-10-05T00:16:21.260Z,100.00
2022-10-05T00:18:53.389Z,100.00
2022-10-05T00:21:26.799Z,100.00
2022-10-05T00:23:56.219Z,100.00
2022-10-05T00:26:27.353Z,100.00
2022-10-05T00:28:54.960Z,100.00
2022-10-05T00:31:27.361Z,100.00
2022-10-05T00:33:55.176Z,100.00
2022-10-05T00:36:21.616Z,100.00
2022-10-05T00:38:47.985Z,100.00
2022-10-05T00:41:40.555Z,100.00
2022-10-05T00:44:12.791Z,100.00
2022-10-05T00:46:55.936Z,100.00
2022-10-05T00:49:37.601Z,100.00
2022-10-05T00:52:23.462Z,100.00
2022-10-05T00:54:59.985Z,100.00
2022-10-05T00:57:46.569Z,100.00
2022-10-05T01:00:16.292Z,100.00
2022-10-05T01:03:06.448Z,100.00
2022-10-05T01:05:39.808Z,100.00
2022-10-05T01:08:22.806Z,100.00
2022-10-05T01:11:08.715Z,100.00
2022-10-05T01:13:41.817Z,100.00
2022-10-05T01:16:19.968Z,100.00
2022-10-05T01:19:21.170Z,100.00
2022-10-05T01:22:21.576Z,100.00
2022-10-05T01:25:01.964Z,100.00
2022-10-05T01:27:40.468Z,100.00
2022-10-05T01:30:14.211Z,100.00
2022-10-05T01:33:05.204Z,100.00
2022-10-05T01:36:02.671Z,100.00
2022-10-05T01:39:03.180Z,100.00
2022-10-05T01:41:29.486Z,100.00
2022-10-05T01:44:01.041Z,100.00
2022-10-05T01:46:50.783Z,100.00
2022-10-05T01:49:49.100Z,100.00
2022-10-05T01:52:42.732Z,100.00
2022-10-05T01:55:19.080Z,100.00
2022-10-05T01:58:08.386Z,100.00
2022-10-05T02:00:57.540Z,100.00
2022-10-05T02:03:27.838Z,100.00
2022-10-05T02:06:01.523Z,100.00
2022-10-05T02:08:49.798Z,100.00
2022-10-05T02:11:16.276Z,100.00
2022-10-05T02:13:51.753Z,100.00
2022-10-05T02:16:39.389Z,100.00
2022-10-05T02:19:32.512Z,100.00
2022-10-05T02:22:08.577Z,100.00
2022-10-05T02:24:39.699Z,100.00
2022-10-05T02:27:44.737Z,100.00
2022-10-05T02:30:16.562Z,100.00
2022-10-05T02:32:45.180Z,100.00
2022-10-05T02:35:17.905Z,100.00
2022-10-05T02:38:05.051Z,100.00
2022-10-05T02:40:46.686Z,100.00
2022-10-05T02:43:47.743Z,100.00
2022-10-05T02:46:41.656Z,100.00
2022-10-05T02:49:18.524Z,100.00
2022-10-05T02:51:44.863Z,100.00
2022-10-05T02:54:58.429Z,100.00
2022-10-05T02:57:31.903Z,100.00
2022-10-05T03:00:13.726Z,100.00
2022-10-05T03:03:06.955Z,100.00
2022-10-05T03:05:54.221Z,100.00
2022-10-05T03:09:04.054Z,100.00
2022-10-05T03:11:34.471Z,100.00
2022-10-05T03:14:06.686Z,100.00
2022-10-05T03:16:48.082Z,100.00
2022-10-05T03:19:47.082Z,100.00
2022-10-05T03:22:44.515Z,100.00
2022-10-05T03:25:41.428Z,100.00
2022-10-05T03:28:38.804Z,100.00
2022-10-05T03:31:26.517Z,100.00
2022-10-05T03:34:04.453Z,100.00
2022-10-05T03:36:49.845Z,100.00
2022-10-05T03:39:34.983Z,100.00
2022-10-05T03:42:18.409Z,100.00
2022-10-05T03:45:13.828Z,100.00
2022-10-05T03:47:45.733Z,100.00
2022-10-05T03:50:17.482Z,100.00
2022-10-05T03:53:16.866Z,100.00
2022-10-05T03:56:04.963Z,100.00
2022-10-05T03:58:51.745Z,100.00
2022-10-05T04:01:22.884Z,100.00
2022-10-05T04:03:53.214Z,100.00
2022-10-05T04:06:27.105Z,100.00
2022-10-05T04:09:01.054Z,100.00
2022-10-05T04:11:40.415Z,100.00
2022-10-05T04:14:11.484Z,100.00
2022-10-05T04:16:45.205Z,100.00
2022-10-05T04:19:23.977Z,100.00
2022-10-05T04:22:15.722Z,100.00
2022-10-05T04:24:50.498Z,100.00
2022-10-05T04:27:20.470Z,100.00
2022-10-05T04:29:50.055Z,100.00
2022-10-05T04:32:42.654Z,100.00
2022-10-05T04:35:28.959Z,100.00
2022-10-05T04:37:55.279Z,100.00
2022-10-05T04:41:29.610Z,100.00
2022-10-05T04:44:17.124Z,100.00
2022-10-05T04:47:10.019Z,100.00
2022-10-05T04:49:36.422Z,100.00
2022-10-05T04:52:30.618Z,100.00
2022-10-05T04:55:28.696Z,100.00
2022-10-05T04:58:19.194Z,100.00
2022-10-05T05:01:04.501Z,100.00
2022-10-05T05:03:47.347Z,100.00
2022-10-05T05:06:26.877Z,100.00
2022-10-05T05:09:15.112Z,100.00
2022-10-05T05:12:19.378Z,100.00
2022-10-05T05:14:58.016Z,100.00
2022-10-05T05:18:03.442Z,100.00
2022-10-05T05:20:35.931Z,100.00
2022-10-05T05:23:26.550Z,100.00
2022-10-05T05:26:12.156Z,100.00
2022-10-05T05:28:52.424Z,100.00
2022-10-05T05:31:51.823Z,100.00
2022-10-05T05:34:30.389Z,100.00
2022-10-05T05:37:18.464Z,100.00
2022-10-05T05:40:04.917Z,100.00
2022-10-05T05:42:55.353Z,100.00
2022-10-05T05:45:41.867Z,100.00
2022-10-05T05:48:27.088Z,100.00
2022-10-05T05:50:59.920Z,100.00
2022-10-05T05:53:26.249Z,100.00
2022-10-05T05:56:19.024Z,100.00
2022-10-05T05:58:50.797Z,100.00
2022-10-05T06:01:32.576Z,100.00
2022-10-05T06:03:59.825Z,100.00
2022-10-05T06:06:30.905Z,100.00
2022-10-05T06:09:00.641Z,100.00
2022-10-05T06:11:47.027Z,100.00
2022-10-05T06:14:19.020Z,100.00
2022-10-05T06:16:50.635Z,100.00
2022-10-05T06:19:18.921Z,100.00
2022-10-05T06:21:55.882Z,100.00
2022-10-05T06:24:35.007Z,100.00
2022-10-05T06:27:13.096Z,100.00
2022-10-05T06:30:06.957Z,100.00
2022-10-05T06:33:03.142Z,100.00
2022-10-05T06:35:56.174Z,100.00
2022-10-05T06:38:39.117Z,100.00
2022-10-05T06:41:24.643Z,100.00
2022-10-05T06:43:59.244Z,100.00
2022-10-05T06:46:28.734Z,100.00
2022-10-05T06:49:17.257Z,100.00
2022-10-05T06:51:51.610Z,100.00
2022-10-05T06:58:39.396Z,100.00
2022-10-05T07:01:11.240Z,100.00
2022-10-05T07:03:50.103Z,100.00
2022-10-05T07:06:43.131Z,100.00
2022-10-05T07:09:51.227Z,100.00
2022-10-05T07:12:40.282Z,100.00
2022-10-05T07:15:19.735Z,100.00
2022-10-05T07:17:53.010Z,100.00
2022-10-05T07:21:13.828Z,100.00
2022-10-05T07:23:53.018Z,100.00
2022-10-05T07:26:38.996Z,100.00
2022-10-05T07:29:30.651Z,100.00
2022-10-05T07:32:28.693Z,100.00
2022-10-05T07:35:30.698Z,100.00
2022-10-05T07:38:00.974Z,100.00
2022-10-05T07:40:37.924Z,100.00
2022-10-05T07:44:02.984Z,100.00
2022-10-05T07:46:48.951Z,100.00
2022-10-05T07:49:23.140Z,100.00
2022-10-05T07:51:55.131Z,100.00
2022-10-05T07:54:28.564Z,100.00
2022-10-05T07:56:56.866Z,100.00
2022-10-05T07:59:32.579Z,100.00
2022-10-05T08:02:20.014Z,100.00
2022-10-05T08:05:02.578Z,100.00
2022-10-05T08:07:30.119Z,100.00
2022-10-05T08:10:05.942Z,100.00
2022-10-05T08:12:32.314Z,100.00
2022-10-05T08:15:16.176Z,100.00
2022-10-05T08:17:53.777Z,100.00
2022-10-05T08:20:29.448Z,100.00
2022-10-05T08:23:28.365Z,100.00
2022-10-05T08:26:10.683Z,100.00
2022-10-05T08:28:38.404Z,100.00
2022-10-05T08:31:07.816Z,100.00
2022-10-05T08:34:00.310Z,100.00
2022-10-05T08:36:55.693Z,100.00
2022-10-05T08:39:24.195Z,100.00
2022-10-05T08:42:13.939Z,100.00
2022-10-05T08:44:50.969Z,100.00
2022-10-05T08:47:25.423Z,100.00
2022-10-05T08:50:17.238Z,100.00
2022-10-05T08:53:13.476Z,100.00
2022-10-05T08:55:52.194Z,100.00
2022-10-05T08:58:44.034Z,100.00
2022-10-05T09:01:19.652Z,100.00
2022-10-05T09:04:00.863Z,100.00
2022-10-05T09:06:30.134Z,100.00
2022-10-05T09:09:20.361Z,100.00
2022-10-05T09:12:17.939Z,100.00
2022-10-05T09:15:24.995Z,100.00
2022-10-05T09:18:07.876Z,100.00
2022-10-05T09:20:43.288Z,100.00
2022-10-05T09:23:18.230Z,100.00
2022-10-05T09:25:58.648Z,100.00
2022-10-05T09:28:37.177Z,100.00
2022-10-05T09:31:33.026Z,100.00
2022-10-05T09:34:38.931Z,100.00
2022-10-05T09:37:25.329Z,100.00
2022-10-05T09:40:06.864Z,100.00
2022-10-05T09:43:01.447Z,100.00
2022-10-05T09:45:37.358Z,100.00
2022-10-05T09:48:23.725Z,100.00
2022-10-05T09:51:20.498Z,100.00
2022-10-05T09:54:44.901Z,100.00
2022-10-05T09:57:17.573Z,100.00
2022-10-05T10:00:15.989Z,100.00
2022-10-05T10:03:12.494Z,100.00
2022-10-05T10:06:11.056Z,100.00
2022-10-05T10:08:53.226Z,100.00
2022-10-05T10:11:28.792Z,100.00
2022-10-05T10:14:17.041Z,100.00
2022-10-05T10:16:56.792Z,100.00
2022-10-05T10:19:53.572Z,100.00
2022-10-05T10:22:28.486Z,100.00
2022-10-05T10:25:01.646Z,100.00
2022-10-05T10:27:56.884Z,100.00
2022-10-05T10:30:36.510Z,100.00
2022-10-05T10:33:11.840Z,100.00
2022-10-05T10:36:09.602Z,100.00
2022-10-05T10:38:58.398Z,100.00
2022-10-05T10:41:49.838Z,100.00
2022-10-05T10:44:37.782Z,100.00
2022-10-05T10:47:33.591Z,100.00
2022-10-05T10:50:04.884Z,100.00
2022-10-05T10:52:46.804Z,100.00
2022-10-05T10:55:50.904Z,100.00
2022-10-05T10:58:23.528Z,100.00
2022-10-05T11:01:19.246Z,100.00
2022-10-05T11:03:57.931Z,100.00
2022-10-05T11:07:09.984Z,100.00
2022-10-05T11:09:48.359Z,100.00
2022-10-05T11:12:44.148Z,100.00
2022-10-05T11:15:25.705Z,100.00
2022-10-05T11:18:20.681Z,100.00
2022-10-05T11:21:02.640Z,100.00
2022-10-05T11:23:58.999Z,100.00
2022-10-05T11:26:43.804Z,100.00
2022-10-05T11:29:37.589Z,100.00
2022-10-05T11:32:32.373Z,100.00
2022-10-05T11:35:25.972Z,100.00
2022-10-05T11:38:19.701Z,100.00
2022-10-05T11:41:13.358Z,100.00
2022-10-05T11:43:51.873Z,97.98
2022-10-05T11:46:36.343Z,96.90
2022-10-05T11:49:08.949Z,94.06
2022-10-05T11:51:38.209Z,88.60
2022-10-05T11:54:21.481Z,87.24
2022-10-05T11:56:55.962Z,83.62
2022-10-05T11:59:31.621Z,80.98
2022-10-05T12:02:25.554Z,81.91
2022-10-05T12:05:13.439Z,82.66
2022-10-05T12:08:02.528Z,83.80
2022-10-05T12:10:56.586Z,86.24
2022-10-05T12:13:40.302Z,89.03
2022-10-05T12:16:26.826Z,89.32
2022-10-05T12:19:09.939Z,88.80
2022-10-05T12:21:59.966Z,92.56
2022-10-05T12:24:35.545Z,92.65
2022-10-05T12:27:06.316Z,91.81
2022-10-05T12:30:08.459Z,91.99
2022-10-05T12:32:41.414Z,91.80
2022-10-05T12:36:12.577Z,91.56
2022-10-05T12:38:52.924Z,90.36
2022-10-05T12:41:48.422Z,92.09
2022-10-05T12:44:23.451Z,90.37
2022-10-05T12:47:10.636Z,93.05
2022-10-05T12:49:52.006Z,93.52
2022-10-05T12:53:08.606Z,91.66
2022-10-05T12:56:00.989Z,90.57
2022-10-05T12:58:45.817Z,90.69
2022-10-05T13:01:41.466Z,89.66
2022-10-05T13:04:24.157Z,92.04
2022-10-05T13:10:53.550Z,89.70
2022-10-05T13:13:43.551Z,89.78
2022-10-05T13:16:19.056Z,87.82
2022-10-05T13:19:12.527Z,87.15
2022-10-05T13:21:57.690Z,81.87
2022-10-05T13:24:32.737Z,75.53
2022-10-05T13:27:04.103Z,70.10
2022-10-05T13:30:18.865Z,67.14
2022-10-05T13:32:58.897Z,61.80
2022-10-05T13:36:05.302Z,59.09
2022-10-05T13:38:48.630Z,58.35
2022-10-05T13:41:34.288Z,58.49
2022-10-05T13:44:00.605Z,56.90
2022-10-05T13:46:51.498Z,56.56
2022-10-05T13:49:29.537Z,56.37
2022-10-05T13:52:08.713Z,54.53
2022-10-05T13:54:47.499Z,54.15
2022-10-05T13:57:21.125Z,53.38
2022-10-05T13:59:53.974Z,52.29
2022-10-05T14:02:23.492Z,51.79
2022-10-05T14:04:51.942Z,51.33
2022-10-05T14:07:51.373Z,50.13
2022-10-05T14:10:39.049Z,49.75
2022-10-05T14:13:28.832Z,49.19
2022-10-05T14:15:59.373Z,48.69
2022-10-05T14:18:28.083Z,48.89
2022-10-05T14:20:59.815Z,47.74
2022-10-05T14:23:27.120Z,48.92
2022-10-05T14:25:54.184Z,49.27
2022-10-05T14:28:33.960Z,50.01
2022-10-05T14:31:15.546Z,49.52
2022-10-05T14:33:42.395Z,48.99
2022-10-05T14:36:22.378Z,49.07
2022-10-05T14:38:56.158Z,52.12
2022-10-05T14:41:27.685Z,53.84
2022-10-05T14:44:02.089Z,55.40
2022-10-05T14:46:32.502Z,57.65
2022-10-05T14:49:22.543Z,59.58
2022-10-05T14:51:50.277Z,61.47
2022-10-05T14:54:53.907Z,62.33
2022-10-05T14:57:30.673Z,64.08
2022-10-05T15:00:06.739Z,64.44
2022-10-05T15:02:49.581Z,65.90
2022-10-05T15:05:21.041Z,67.14
2022-10-05T15:07:49.266Z,67.97
2022-10-05T15:10:36.342Z,68.91
2022-10-05T15:13:13.405Z,69.13
2022-10-05T15:16:31.605Z,69.50
2022-10-05T15:19:17.030Z,69.58
2022-10-05T15:22:02.121Z,67.53
2022-10-05T15:24:45.378Z,66.86
2022-10-05T15:27:25.211Z,67.55
2022-10-05T15:30:09.131Z,69.08
2022-10-05T15:32:58.030Z,69.04
2022-10-05T15:35:46.427Z,66.82
2022-10-05T15:38:27.487Z,66.74
2022-10-05T15:41:18.328Z,65.60
2022-10-05T15:44:09.331Z,64.22
2022-10-05T15:46:41.497Z,64.57
2022-10-05T15:49:33.793Z,67.53
2022-10-05T15:52:11.854Z,69.87
2022-10-05T15:55:28.386Z,72.26
2022-10-05T15:58:25.399Z,75.32
2022-10-05T16:00:59.277Z,76.88
2022-10-05T16:08:08.188Z,80.96
2022-10-05T16:10:38.632Z,82.53
2022-10-05T16:13:19.326Z,84.05
2022-10-05T16:16:00.287Z,84.14
2022-10-05T16:18:38.841Z,85.69
2022-10-05T16:21:25.707Z,86.21
2022-10-05T16:24:10.525Z,87.50
2022-10-05T16:29:53.239Z,89.19
2022-10-05T16:32:22.532Z,89.33
2022-10-05T16:34:54.138Z,89.28
2022-10-05T16:37:28.982Z,89.22
2022-10-05T16:39:59.659Z,89.88
2022-10-05T16:42:39.008Z,90.32
2022-10-05T16:45:18.387Z,91.47
2022-10-05T16:47:44.746Z,92.24
2022-10-05T16:50:25.293Z,93.28
2022-10-05T16:53:13.182Z,94.26
2022-10-05T16:55:48.235Z,94.32
2022-10-05T16:58:27.316Z,94.32
2022-10-05T17:01:00.469Z,95.42
2022-10-05T17:07:24.048Z,97.63
2022-10-05T17:10:25.204Z,98.39
2022-10-05T17:13:11.486Z,98.54
2022-10-05T17:15:56.833Z,99.37
2022-10-05T17:18:51.408Z,99.90
2022-10-05T17:21:26.293Z,100.00
2022-10-05T17:28:15.669Z,100.00
2022-10-05T17:31:08.969Z,100.00
2022-10-05T17:34:12.394Z,100.00
2022-10-05T17:36:57.645Z,100.00
2022-10-05T17:39:51.897Z,100.00
2022-10-05T17:42:30.720Z,100.00
2022-10-05T17:45:09.551Z,100.00
2022-10-05T17:48:29.302Z,100.00
2022-10-05T17:51:14.457Z,100.00
2022-10-05T17:56:49.053Z,100.00
2022-10-05T17:59:38.834Z,100.00
2022-10-05T18:02:21.380Z,100.00
2022-10-05T18:05:15.109Z,100.00
2022-10-05T18:08:21.246Z,100.00
2022-10-05T18:11:10.165Z,100.00
2022-10-05T18:13:50.121Z,100.00
2022-10-05T18:16:54.370Z,100.00
2022-10-05T18:19:21.957Z,100.00
2022-10-05T18:22:15.908Z,100.00
2022-10-05T18:24:45.253Z,99.72
2022-10-05T18:27:31.665Z,99.42
2022-10-05T18:30:17.905Z,99.77
2022-10-05T18:32:54.294Z,99.78
2022-10-05T18:35:42.936Z,99.13
2022-10-05T18:38:36.909Z,98.72
2022-10-05T18:41:36.512Z,98.45
2022-10-05T18:44:08.865Z,98.91
2022-10-05T18:47:02.690Z,98.41
2022-10-05T18:49:53.591Z,97.76
2022-10-05T18:52:38.796Z,98.47
2022-10-05T18:55:19.277Z,99.37
2022-10-05T18:57:51.318Z,100.00
2022-10-05T19:00:20.775Z,100.00
2022-10-05T19:03:19.766Z,100.00
2022-10-05T19:06:06.593Z,100.00
2022-10-05T19:08:41.992Z,100.00
2022-10-05T19:11:08.298Z,100.00
2022-10-05T19:13:46.989Z,100.00
2022-10-05T19:16:51.203Z,100.00
2022-10-05T19:19:35.870Z,100.00
2022-10-05T19:22:44.192Z,100.00
2022-10-05T19:25:20.509Z,100.00
2022-10-05T19:28:14.092Z,100.00
2022-10-05T19:30:51.743Z,100.00
2022-10-05T19:33:45.384Z,100.00
2022-10-05T19:36:46.088Z,100.00
2022-10-05T19:39:29.072Z,100.00
2022-10-05T19:42:01.568Z,100.00
2022-10-05T19:44:47.940Z,100.00
2022-10-05T19:47:45.382Z,100.00
2022-10-05T19:50:24.138Z,100.00
2022-10-05T19:52:52.159Z,100.00
2022-10-05T19:55:22.281Z,100.00
2022-10-05T19:57:55.452Z,100.00
2022-10-05T20:00:31.205Z,100.00
2022-10-05T20:03:27.458Z,99.67
2022-10-05T20:05:58.182Z,100.00
2022-10-05T20:08:26.881Z,100.00
2022-10-05T20:11:29.233Z,100.00
2022-10-05T20:13:55.521Z,100.00
2022-10-05T20:16:51.070Z,100.00
2022-10-05T20:19:50.361Z,100.00
2022-10-05T20:22:26.574Z,100.00
2022-10-05T20:24:57.362Z,100.00
2022-10-05T20:27:41.965Z,100.00
2022-10-05T20:30:10.003Z,100.00
2022-10-05T20:32:36.392Z,100.00
2022-10-05T20:35:02.821Z,100.00
2022-10-05T20:37:29.201Z,100.00
2022-10-05T20:39:55.591Z,99.85
2022-10-05T20:42:23.693Z,99.91
2022-10-05T20:44:55.798Z,100.00
2022-10-05T20:47:23.357Z,100.00
2022-10-05T20:49:50.016Z,100.00
2022-10-05T20:52:16.593Z,100.00
2022-10-05T20:54:43.243Z,100.00
2022-10-05T20:57:10.069Z,100.00
2022-10-05T20:59:37.457Z,100.00
2022-10-05T21:02:04.807Z,100.00
2022-10-05T21:04:40.961Z,100.00
2022-10-05T21:07:08.406Z,100.00
2022-10-05T21:09:37.854Z,100.00
2022-10-05T21:12:04.341Z,100.00
2022-10-05T21:14:34.401Z,100.00
2022-10-05T21:17:01.838Z,100.00
2022-10-05T21:19:29.356Z,100.00
2022-10-05T21:21:59.217Z,100.00
2022-10-05T21:24:25.755Z,100.00
2022-10-05T21:26:52.165Z,100.00
2022-10-05T21:29:18.599Z,100.00
2022-10-05T21:31:45.177Z,100.00
2022-10-05T21:34:11.560Z,100.00
2022-10-05T21:36:37.977Z,100.00
2022-10-05T21:39:04.495Z,100.00
2022-10-05T21:41:31.090Z,100.00
2022-10-05T21:43:57.459Z,100.00
2022-10-05T21:46:26.484Z,100.00
2022-10-05T21:48:53.923Z,100.00
2022-10-05T21:51:23.545Z,100.00
2022-10-05T21:53:54.784Z,100.00
2022-10-05T21:56:23.445Z,100.00
2022-10-05T21:58:50.746Z,100.00
2022-10-05T22:01:22.486Z,100.00
2022-10-05T22:03:49.643Z,100.00
2022-10-05T22:06:16.044Z,100.00
2022-10-05T22:08:42.452Z,100.00
2022-10-05T22:11:12.054Z,100.00
2022-10-05T22:13:50.050Z,100.00
2022-10-05T22:16:18.226Z,100.00
2022-10-05T22:18:44.790Z,100.00
2022-10-05T22:21:12.572Z,100.00
2022-10-05T22:23:43.637Z,100.00
2022-10-05T22:26:11.344Z,100.00
2022-10-05T22:28:39.037Z,100.00
2022-10-05T22:31:06.782Z,100.00
2022-10-05T22:33:33.624Z,100.00
2022-10-05T22:36:00.187Z,100.00
2022-10-05T22:38:27.377Z,100.00
2022-10-05T22:40:54.054Z,100.00
2022-10-05T22:43:20.647Z,100.00
2022-10-05T22:45:47.127Z,100.00
2022-10-05T22:48:13.641Z,100.00
2022-10-05T22:50:40.014Z,100.00
2022-10-05T22:53:06.502Z,100.00
2022-10-05T22:55:32.926Z,100.00
2022-10-05T22:58:01.478Z,100.00
2022-10-05T23:00:53.286Z,100.00
2022-10-05T23:03:15.634Z,100.00
2022-10-05T23:05:42.006Z,100.00
2022-10-05T23:08:08.518Z,100.00
2022-10-05T23:10:38.992Z,100.00
2022-10-05T23:13:06.435Z,100.00
2022-10-05T23:15:34.183Z,100.00
2022-10-05T23:18:00.765Z,100.00
2022-10-05T23:20:27.158Z,100.00
2022-10-05T23:22:53.742Z,100.00
2022-10-05T23:25:22.071Z,100.00
2022-10-05T23:27:48.481Z,100.00
2022-10-05T23:30:15.012Z,100.00
2022-10-05T23:32:42.990Z,100.00
2022-10-05T23:35:11.582Z,100.00
2022-10-05T23:37:43.028Z,100.00
2022-10-05T23:40:12.095Z,100.00
2022-10-05T23:42:41.820Z,100.00
2022-10-05T23:45:09.937Z,100.00
2022-10-05T23:47:36.354Z,100.00
2022-10-05T23:50:03.692Z,100.00
2022-10-05T23:52:30.231Z,100.00
2022-10-05T23:54:56.657Z,100.00
2022-10-05T23:57:23.030Z,100.00
2022-10-05T23:59:52.542Z,100.00
